Time,TemperatureF,DewpointF,PressureIn,WindDirection,WindDirectionDegrees,WindSpeedMPH,WindSpeedGustMPH,Humidity,HourlyPrecipIn,Conditions,Clouds,dailyrainin,SoftwareType,DateUTC
2013-02-20 00:32:00,8.0,-3.0,-100.00,NE,51,-999.0,4.0,60,-99.99,,,-99.99,,2013-02-20 07:32:00,
2013-02-20 00:42:00,8.0,-3.0,-100.00,NE,51,-999.0,4.0,60,-99.99,,,-99.99,,2013-02-20 07:42:00,
2013-02-20 00:52:00,8.0,-3.0,-100.00,NE,51,-999.0,1.0,60,-99.99,,,-99.99,,2013-02-20 07:52:00,
2013-02-20 01:05:00,8.0,-3.0,-100.00,NE,51,-999.0,1.0,60,-99.99,,,-99.99,,2013-02-20 08:05:00,
2013-02-20 01:11:00,11.0,-3.0,-100.00,NE,51,-999.0,1.0,52,-99.99,,,-99.99,,2013-02-20 08:11:00,
2013-02-20 01:21:00,14.0,-2.0,-100.00,NE,51,-999.0,3.0,47,-99.99,,,-99.99,,2013-02-20 08:21:00,
2013-02-20 01:31:00,14.0,-2.0,-100.00,NE,51,-999.0,3.0,47,-99.99,,,-99.99,,2013-02-20 08:31:00,
2013-02-20 01:41:00,16.0,-2.0,-100.00,NE,51,-999.0,8.0,43,-99.99,,,-99.99,,2013-02-20 08:41:00,
2013-02-20 01:52:00,17.0,-2.0,-100.00,NE,51,-999.0,5.0,40,-99.99,,,-99.99,,2013-02-20 08:52:00,
2013-02-20 02:01:00,17.0,-2.0,-100.00,NE,51,-999.0,5.0,40,-99.99,,,-99.99,,2013-02-20 09:01:00,
2013-02-20 02:11:00,15.0,-2.0,-100.00,NE,51,-999.0,5.0,46,-99.99,,,-99.99,,2013-02-20 09:11:00,
2013-02-20 02:21:00,12.0,-3.0,-100.00,NE,51,-999.0,5.0,50,-99.99,,,-99.99,,2013-02-20 09:21:00,
2013-02-20 02:31:00,12.0,-3.0,-100.00,NE,51,-999.0,5.0,50,-99.99,,,-99.99,,2013-02-20 09:31:00,
2013-02-20 02:41:00,11.0,-2.0,-100.00,NE,51,-999.0,5.0,56,-99.99,,,-99.99,,2013-02-20 09:41:00,
2013-02-20 02:51:00,10.0,-2.0,-100.00,NE,51,-999.0,5.0,56,-99.99,,,-99.99,,2013-02-20 09:51:00,
2013-02-20 03:01:00,10.0,-2.0,-100.00,NE,51,-999.0,-999.0,56,-99.99,,,-99.99,,2013-02-20 10:01:00,
2013-02-20 03:12:00,10.0,-2.0,-100.00,NE,51,-999.0,-999.0,58,-99.99,,,-99.99,,2013-02-20 10:12:00,
2013-02-20 03:21:00,9.0,-3.0,-100.00,NE,51,-999.0,-999.0,59,-99.99,,,-99.99,,2013-02-20 10:21:00,
2013-02-20 03:31:00,9.0,-3.0,-100.00,NE,51,-999.0,-999.0,59,-99.99,,,-99.99,,2013-02-20 10:31:00,
2013-02-20 03:41:00,8.0,-3.0,-100.00,NE,51,-999.0,2.0,59,-99.99,,,-99.99,,2013-02-20 10:41:00,
2013-02-20 03:51:00,9.0,-2.0,-100.00,NE,51,-999.0,2.0,60,-99.99,,,-99.99,,2013-02-20 10:51:00,
2013-02-20 04:02:00,9.0,-2.0,-100.00,NE,51,-999.0,2.0,60,-99.99,,,-99.99,,2013-02-20 11:02:00,
2013-02-20 04:11:00,8.0,-2.0,-100.00,NE,51,-999.0,2.0,62,-99.99,,,-99.99,,2013-02-20 11:11:00,
2013-02-20 04:21:00,9.0,-2.0,-100.00,NE,51,-999.0,2.0,61,-99.99,,,-99.99,,2013-02-20 11:21:00,
2013-02-20 04:32:00,9.0,-2.0,-100.00,NE,51,-999.0,2.0,61,-99.99,,,-99.99,,2013-02-20 11:32:00,
2013-02-20 04:41:00,9.0,-2.0,-100.00,NE,51,-999.0,2.0,60,-99.99,,,-99.99,,2013-02-20 11:41:00,
2013-02-20 04:52:00,11.0,-2.0,-100.00,NE,51,-999.0,2.0,56,-99.99,,,-99.99,,2013-02-20 11:52:00,
2013-02-20 05:01:00,11.0,-2.0,-100.00,NE,51,-999.0,2.0,56,-99.99,,,-99.99,,2013-02-20 12:01:00,
2013-02-20 05:12:00,12.0,-1.0,-100.00,NE,51,-999.0,2.0,54,-99.99,,,-99.99,,2013-02-20 12:12:00,
2013-02-20 05:21:00,11.0,-2.0,-100.00,NE,51,-999.0,1.0,55,-99.99,,,-99.99,,2013-02-20 12:21:00,
2013-02-20 05:32:00,11.0,-2.0,-100.00,NE,51,-999.0,1.0,55,-99.99,,,-99.99,,2013-02-20 12:32:00,
2013-02-20 05:42:00,11.0,-1.0,-100.00,NE,51,-999.0,1.0,57,-99.99,,,-99.99,,2013-02-20 12:42:00,
2013-02-20 05:52:00,8.0,-1.0,-100.00,NE,51,-999.0,1.0,66,-99.99,,,-99.99,,2013-02-20 12:52:00,
2013-02-20 06:01:00,8.0,-1.0,-100.00,NE,51,-999.0,1.0,66,-99.99,,,-99.99,,2013-02-20 13:01:00,
2013-02-20 06:11:00,9.0,-1.0,-100.00,NE,51,-999.0,1.0,63,-99.99,,,-99.99,,2013-02-20 13:11:00,
2013-02-20 06:22:00,7.0,-2.0,-100.00,NE,51,-999.0,1.0,66,-99.99,,,-99.99,,2013-02-20 13:22:00,
2013-02-20 06:31:00,7.0,-2.0,-100.00,NE,51,-999.0,-999.0,66,-99.99,,,-99.99,,2013-02-20 13:31:00,
2013-02-20 06:42:00,8.0,-1.0,-100.00,NE,51,-999.0,-999.0,66,-99.99,,,-99.99,,2013-02-20 13:42:00,
2013-02-20 06:51:00,8.0,-2.0,-100.00,NE,51,-999.0,-999.0,65,-99.99,,,-99.99,,2013-02-20 13:51:00,
2013-02-20 07:01:00,8.0,-2.0,-100.00,NE,51,-999.0,-999.0,65,-99.99,,,-99.99,,2013-02-20 14:01:00,
2013-02-20 07:11:00,8.0,-1.0,-100.00,NE,51,-999.0,-999.0,67,-99.99,,,-99.99,,2013-02-20 14:11:00,
2013-02-20 07:21:00,7.0,-1.0,-100.00,NE,51,-999.0,-999.0,69,-99.99,,,-99.99,,2013-02-20 14:21:00,
2013-02-20 07:32:00,7.0,-1.0,-100.00,NE,51,-999.0,-999.0,69,-99.99,,,-99.99,,2013-02-20 14:32:00,
2013-02-20 07:42:00,10.0,0.0,-100.00,NE,51,-999.0,-999.0,64,-99.99,,,-99.99,,2013-02-20 14:42:00,
2013-02-20 07:52:00,10.0,0.0,-100.00,NE,51,-999.0,-999.0,63,-99.99,,,-99.99,,2013-02-20 14:52:00,
2013-02-20 08:01:00,10.0,0.0,-100.00,NE,51,-999.0,-999.0,63,-99.99,,,-99.99,,2013-02-20 15:01:00,
2013-02-20 08:11:00,11.0,0.0,-100.00,NE,51,-999.0,-999.0,63,-99.99,,,-99.99,,2013-02-20 15:11:00,
2013-02-20 08:22:00,13.0,0.0,-100.00,NE,51,-999.0,-999.0,55,-99.99,,,-99.99,,2013-02-20 15:22:00,
2013-02-20 08:32:00,13.0,0.0,-100.00,NE,51,-999.0,-999.0,55,-99.99,,,-99.99,,2013-02-20 15:32:00,
2013-02-20 08:41:00,16.0,2.0,-100.00,NE,51,-999.0,-999.0,53,-99.99,,,-99.99,,2013-02-20 15:41:00,
2013-02-20 08:51:00,16.0,2.0,-100.00,NE,51,-999.0,-999.0,53,-99.99,,,-99.99,,2013-02-20 15:51:00,
2013-02-20 09:01:00,19.0,3.0,-100.00,NE,51,-999.0,-999.0,48,-99.99,,,-99.99,,2013-02-20 16:01:00,
2013-02-20 09:11:00,22.0,2.0,-100.00,NE,51,-999.0,-999.0,39,-99.99,,,-99.99,,2013-02-20 16:11:00,
2013-02-20 09:21:00,24.0,1.0,-100.00,NE,51,-999.0,-999.0,34,-99.99,,,-99.99,,2013-02-20 16:21:00,
2013-02-20 09:32:00,24.0,1.0,-100.00,NE,51,-999.0,-999.0,34,-99.99,,,-99.99,,2013-02-20 16:32:00,
2013-02-20 09:42:00,26.0,2.0,-100.00,NE,51,-999.0,-999.0,32,-99.99,,,-99.99,,2013-02-20 16:42:00,
2013-02-20 09:51:00,26.0,2.0,-100.00,NE,51,-999.0,-999.0,32,-99.99,,,-99.99,,2013-02-20 16:51:00,
2013-02-20 10:01:00,26.0,2.0,-100.00,NE,51,-999.0,-999.0,32,-99.99,,,-99.99,,2013-02-20 17:01:00,
2013-02-20 10:11:00,27.0,2.0,-100.00,North,0,0.0,5.0,31,-99.99,,,-99.99,,2013-02-20 17:11:00,
2013-02-20 10:21:00,27.0,2.0,-100.00,North,0,0.0,6.0,32,-99.99,,,-99.99,,2013-02-20 17:21:00,
2013-02-20 10:32:00,27.0,2.0,-100.00,North,0,0.0,6.0,32,-99.99,,,-99.99,,2013-02-20 17:32:00,
2013-02-20 10:41:00,29.0,3.0,-100.00,North,0,0.0,6.0,31,-99.99,,,-99.99,,2013-02-20 17:41:00,
2013-02-20 10:52:00,30.0,5.0,-100.00,North,0,0.0,8.0,32,-99.99,,,-99.99,,2013-02-20 17:52:00,
2013-02-20 11:02:00,30.0,5.0,-100.00,North,0,0.0,8.0,32,-99.99,,,-99.99,,2013-02-20 18:02:00,
2013-02-20 11:11:00,31.0,5.0,-100.00,NNE,23,1.0,9.0,31,-99.99,,,-99.99,,2013-02-20 18:11:00,
2013-02-20 11:21:00,31.0,5.0,-100.00,NNE,23,1.0,9.0,31,-99.99,,,-99.99,,2013-02-20 18:21:00,
2013-02-20 11:31:00,29.0,5.0,-100.00,NNE,23,1.0,8.0,33,-99.99,,,-99.99,,2013-02-20 18:31:00,
2013-02-20 11:42:00,28.0,4.0,-100.00,NNE,23,1.0,8.0,34,-99.99,,,-99.99,,2013-02-20 18:42:00,
2013-02-20 11:51:00,28.0,5.0,-100.00,NNE,28,2.0,7.0,35,-99.99,,,-99.99,,2013-02-20 18:51:00,
2013-02-20 12:01:00,28.0,5.0,-100.00,NNE,28,2.0,7.0,35,-99.99,,,-99.99,,2013-02-20 19:01:00,
2013-02-20 12:11:00,31.0,6.0,-100.00,NNE,23,3.0,7.0,32,-99.99,,,-99.99,,2013-02-20 19:11:00,
2013-02-20 12:21:00,29.0,6.0,-100.00,NNE,23,3.0,11.0,35,-99.99,,,-99.99,,2013-02-20 19:21:00,
2013-02-20 12:31:00,29.0,6.0,-100.00,NNE,23,3.0,11.0,35,-99.99,,,-99.99,,2013-02-20 19:31:00,
2013-02-20 12:41:00,28.0,4.0,-100.00,ENE,63,3.0,8.0,34,-99.99,,,-99.99,,2013-02-20 19:41:00,
2013-02-20 12:51:00,29.0,6.0,-100.00,ENE,63,3.0,9.0,36,-99.99,,,-99.99,,2013-02-20 19:51:00,
2013-02-20 13:01:00,29.0,6.0,-100.00,NNE,23,4.0,9.0,36,-99.99,,,-99.99,,2013-02-20 20:01:00,
2013-02-20 13:11:00,27.0,8.0,-100.00,NNE,23,4.0,8.0,43,-99.99,,,-99.99,,2013-02-20 20:11:00,
2013-02-20 13:21:00,27.0,9.0,-100.00,NNE,23,4.0,9.0,45,-99.99,,,-99.99,,2013-02-20 20:21:00,
2013-02-20 13:31:00,27.0,9.0,-100.00,NNE,28,2.0,9.0,45,-99.99,,,-99.99,,2013-02-20 20:31:00,
2013-02-20 13:41:00,27.0,8.0,-100.00,NNE,28,2.0,8.0,44,-99.99,,,-99.99,,2013-02-20 20:41:00,
2013-02-20 13:51:00,27.0,7.0,-100.00,North,11,3.0,8.0,41,-99.99,,,-99.99,,2013-02-20 20:51:00,
2013-02-20 14:01:00,27.0,7.0,-100.00,North,11,3.0,8.0,41,-99.99,,,-99.99,,2013-02-20 21:01:00,
2013-02-20 14:11:00,27.0,5.0,-100.00,North,11,3.0,8.0,37,-99.99,,,-99.99,,2013-02-20 21:11:00,
2013-02-20 14:21:00,26.0,6.0,-100.00,NNE,28,3.0,9.0,40,-99.99,,,-99.99,,2013-02-20 21:21:00,
2013-02-20 14:31:00,26.0,6.0,-100.00,NNE,28,3.0,9.0,40,-99.99,,,-99.99,,2013-02-20 21:31:00,
2013-02-20 14:41:00,26.0,5.0,-100.00,NNE,28,3.0,8.0,39,-99.99,,,-99.99,,2013-02-20 21:41:00,
2013-02-20 14:51:00,26.0,4.0,-100.00,NNE,28,3.0,8.0,36,-99.99,,,-99.99,,2013-02-20 21:51:00,
2013-02-20 15:01:00,26.0,4.0,-100.00,NNE,28,3.0,8.0,36,-99.99,,,-99.99,,2013-02-20 22:01:00,
2013-02-20 15:11:00,25.0,5.0,-100.00,NNE,28,3.0,6.0,40,-99.99,,,-99.99,,2013-02-20 22:11:00,
2013-02-20 15:21:00,23.0,5.0,-100.00,NNE,28,3.0,6.0,46,-99.99,,,-99.99,,2013-02-20 22:21:00,
2013-02-20 15:31:00,23.0,5.0,-100.00,NNE,28,3.0,6.0,46,-99.99,,,-99.99,,2013-02-20 22:31:00,
2013-02-20 15:42:00,22.0,9.0,-100.00,NNE,28,3.0,9.0,58,-99.99,,,-99.99,,2013-02-20 22:42:00,
2013-02-20 15:51:00,20.0,9.0,-100.00,NNE,17,2.0,6.0,62,-99.99,,,-99.99,,2013-02-20 22:51:00,
2013-02-20 16:01:00,20.0,9.0,-100.00,NNE,17,2.0,6.0,62,-99.99,,,-99.99,,2013-02-20 23:01:00,
2013-02-20 16:12:00,20.0,9.0,-100.00,NNE,17,2.0,5.0,63,-99.99,,,-99.99,,2013-02-20 23:12:00,
2013-02-20 16:22:00,20.0,9.0,-100.00,NNE,17,2.0,5.0,63,-99.99,,,-99.99,,2013-02-20 23:22:00,
2013-02-20 16:31:00,20.0,9.0,-100.00,NNE,17,2.0,4.0,63,-99.99,,,-99.99,,2013-02-20 23:31:00,
2013-02-20 16:42:00,18.0,9.0,-100.00,NNE,17,2.0,5.0,70,-99.99,,,-99.99,,2013-02-20 23:42:00,
2013-02-20 16:52:00,18.0,9.0,-100.00,NNE,17,2.0,5.0,70,-99.99,,,-99.99,,2013-02-20 23:52:00,
2013-02-20 17:02:00,15.0,9.0,-100.00,NNE,17,2.0,3.0,80,-99.99,,,-99.99,,2013-02-21 00:02:00,
2013-02-20 17:11:00,13.0,9.0,-100.00,NNE,17,2.0,6.0,86,-99.99,,,-99.99,,2013-02-21 00:11:00,
2013-02-20 17:21:00,12.0,9.0,-100.00,NNE,17,2.0,7.0,90,-99.99,,,-99.99,,2013-02-21 00:21:00,
2013-02-20 17:32:00,12.0,9.0,-100.00,NNE,17,2.0,7.0,90,-99.99,,,-99.99,,2013-02-21 00:32:00,
2013-02-20 17:42:00,11.0,9.0,-100.00,NNE,17,2.0,7.0,94,-99.99,,,-99.99,,2013-02-21 00:42:00,
2013-02-20 17:52:00,11.0,9.0,-100.00,NNE,17,2.0,7.0,94,-99.99,,,-99.99,,2013-02-21 00:52:00,
2013-02-20 18:01:00,10.0,9.0,-100.00,NNE,17,-999.0,7.0,96,-99.99,,,-99.99,,2013-02-21 01:01:00,
2013-02-20 18:11:00,10.0,9.0,-100.00,NNE,17,-999.0,7.0,96,-99.99,,,-99.99,,2013-02-21 01:11:00,
2013-02-20 18:21:00,10.0,9.0,-100.00,NNE,17,-999.0,7.0,96,-99.99,,,-99.99,,2013-02-21 01:21:00,
2013-02-20 18:32:00,10.0,9.0,-100.00,NNE,17,-999.0,-999.0,97,-99.99,,,-99.99,,2013-02-21 01:32:00,
2013-02-20 18:42:00,10.0,9.0,-100.00,NNE,17,-999.0,-999.0,97,-99.99,,,-99.99,,2013-02-21 01:42:00,
2013-02-20 18:51:00,10.0,10.0,-100.00,NNE,17,-999.0,-999.0,98,-99.99,,,-99.99,,2013-02-21 01:51:00,
2013-02-20 19:01:00,10.0,10.0,-100.00,NNE,17,-999.0,-999.0,98,-99.99,,,-99.99,,2013-02-21 02:01:00,
2013-02-20 19:11:00,10.0,10.0,-100.00,NNE,17,-999.0,-999.0,98,-99.99,,,-99.99,,2013-02-21 02:11:00,
2013-02-20 19:21:00,10.0,10.0,-100.00,NNE,17,-999.0,-999.0,98,-99.99,,,-99.99,,2013-02-21 02:21:00,
2013-02-20 19:32:00,10.0,9.0,-100.00,NNE,17,-999.0,-999.0,98,-99.99,,,-99.99,,2013-02-21 02:32:00,
2013-02-20 19:42:00,10.0,9.0,-100.00,NNE,17,-999.0,-999.0,98,-99.99,,,-99.99,,2013-02-21 02:42:00,
2013-02-20 19:51:00,10.0,9.0,-100.00,NNE,17,-999.0,-999.0,98,-99.99,,,-99.99,,2013-02-21 02:51:00,
2013-02-20 20:01:00,9.0,9.0,-100.00,NNE,17,-999.0,-999.0,98,-99.99,,,-99.99,,2013-02-21 03:01:00,
2013-02-20 20:12:00,9.0,9.0,-100.00,NNE,17,-999.0,-999.0,98,-99.99,,,-99.99,,2013-02-21 03:12:00,
2013-02-20 20:21:00,8.0,8.0,-100.00,NNE,17,-999.0,-999.0,99,-99.99,,,-99.99,,2013-02-21 03:21:00,
2013-02-20 20:32:00,8.0,8.0,-100.00,NNE,17,-999.0,-999.0,99,-99.99,,,-99.99,,2013-02-21 03:32:00,
2013-02-20 20:41:00,9.0,9.0,-100.00,NNE,17,-999.0,-999.0,98,-99.99,,,-99.99,,2013-02-21 03:41:00,
2013-02-20 20:51:00,8.0,8.0,-100.00,NNE,17,-999.0,-999.0,99,-99.99,,,-99.99,,2013-02-21 03:51:00,
2013-02-20 21:01:00,8.0,8.0,-100.00,NNE,17,-999.0,-999.0,99,-99.99,,,-99.99,,2013-02-21 04:01:00,
2013-02-20 21:11:00,8.0,8.0,-100.00,NNE,17,-999.0,-999.0,99,-99.99,,,-99.99,,2013-02-21 04:11:00,
2013-02-20 21:21:00,7.0,7.0,-100.00,NNE,17,-999.0,-999.0,98,-99.99,,,-99.99,,2013-02-21 04:21:00,
2013-02-20 21:32:00,7.0,7.0,-100.00,NNE,17,-999.0,-999.0,98,-99.99,,,-99.99,,2013-02-21 04:32:00,
2013-02-20 21:42:00,6.0,5.0,-100.00,NNE,17,-999.0,-999.0,97,-99.99,,,-99.99,,2013-02-21 04:42:00,
2013-02-20 21:51:00,5.0,4.0,-100.00,NNE,17,-999.0,-999.0,97,-99.99,,,-99.99,,2013-02-21 04:51:00,
2013-02-20 22:02:00,5.0,4.0,-100.00,NNE,17,-999.0,-999.0,97,-99.99,,,-99.99,,2013-02-21 05:02:00,
2013-02-20 22:12:00,5.0,4.0,-100.00,NNE,17,-999.0,-999.0,97,-99.99,,,-99.99,,2013-02-21 05:12:00,
2013-02-20 22:22:00,5.0,4.0,-100.00,NNE,17,-999.0,-999.0,97,-99.99,,,-99.99,,2013-02-21 05:22:00,
2013-02-20 22:33:00,6.0,5.0,-100.00,NNE,17,-999.0,-999.0,98,-99.99,,,-99.99,,2013-02-21 05:33:00,
2013-02-20 22:43:00,6.0,5.0,-100.00,NNE,17,-999.0,-999.0,97,-99.99,,,-99.99,,2013-02-21 05:43:00,
2013-02-20 22:52:00,7.0,6.0,-100.00,NNE,17,-999.0,-999.0,97,-99.99,,,-99.99,,2013-02-21 05:52:00,
2013-02-20 23:01:00,7.0,6.0,-100.00,NNE,17,-999.0,-999.0,97,-99.99,,,-99.99,,2013-02-21 06:01:00,
2013-02-20 23:11:00,8.0,7.0,-100.00,NNE,17,-999.0,-999.0,96,-99.99,,,-99.99,,2013-02-21 06:11:00,
2013-02-20 23:21:00,8.0,7.0,-100.00,NNE,17,-999.0,-999.0,97,-99.99,,,-99.99,,2013-02-21 06:21:00,
2013-02-20 23:31:00,8.0,7.0,-100.00,NNE,17,-999.0,-999.0,97,-99.99,,,-99.99,,2013-02-21 06:31:00,
2013-02-20 23:41:00,8.0,7.0,-100.00,NNE,17,-999.0,-999.0,97,-99.99,,,-99.99,,2013-02-21 06:41:00,
2013-02-20 23:51:00,8.0,7.0,-100.00,NNE,17,-999.0,-999.0,97,-99.99,,,-99.99,,2013-02-21 06:51:00,